createdAt,value
2023-03-26T00:02:05.969Z,50.40
2023-03-26T00:04:34.685Z,50.40
2023-03-26T00:07:05.125Z,50.40
2023-03-26T00:09:33.092Z,50.40
2023-03-26T00:12:01.194Z,50.30
2023-03-26T00:14:30.395Z,50.20
2023-03-26T00:16:58.597Z,50.10
2023-03-26T00:19:27.900Z,50.20
2023-03-26T00:21:57.765Z,50.10
2023-03-26T00:24:29.615Z,50.10
2023-03-26T00:26:57.755Z,50.10
2023-03-26T00:29:28.047Z,50.00
2023-03-26T00:31:56.186Z,49.90
2023-03-26T00:34:24.784Z,49.90
2023-03-26T00:36:54.497Z,50.30
2023-03-26T00:39:23.747Z,49.90
2023-03-26T00:41:54.453Z,49.80
2023-03-26T00:44:22.929Z,49.80
2023-03-26T00:46:51.214Z,49.80
2023-03-26T00:49:19.110Z,49.70
2023-03-26T00:51:47.326Z,49.70
2023-03-26T00:54:15.712Z,49.70
2023-03-26T00:56:44.139Z,49.70
2023-03-26T00:59:13.432Z,49.60
2023-03-26T01:01:41.916Z,49.60
2023-03-26T01:04:28.108Z,49.60
2023-03-26T01:06:59.647Z,49.50
2023-03-26T01:09:35.746Z,49.70
2023-03-26T01:12:06.792Z,49.60
2023-03-26T01:14:36.566Z,49.70
2023-03-26T01:17:07.962Z,49.70
2023-03-26T01:19:44.750Z,49.70
2023-03-26T01:22:18.081Z,49.60
2023-03-26T01:24:53.153Z,49.60
2023-03-26T01:27:32.133Z,49.60
2023-03-26T01:30:06.786Z,49.50
2023-03-26T01:32:59.565Z,49.30
2023-03-26T01:35:38.547Z,49.70
2023-03-26T01:38:18.799Z,49.50
2023-03-26T01:40:53.393Z,49.60
2023-03-26T01:43:32.599Z,49.60
2023-03-26T01:46:03.760Z,49.70
2023-03-26T01:48:34.659Z,49.70
2023-03-26T01:51:02.764Z,49.80
2023-03-26T01:53:31.733Z,49.90
2023-03-26T01:56:13.307Z,49.80
2023-03-26T01:58:53.194Z,49.90
2023-03-26T02:01:30.270Z,50.00
2023-03-26T02:04:07.418Z,49.90
2023-03-26T02:06:45.179Z,50.00
2023-03-26T02:09:18.706Z,50.00
2023-03-26T02:11:49.086Z,50.00
2023-03-26T02:14:17.837Z,50.00
2023-03-26T02:16:47.954Z,50.00
2023-03-26T02:19:21.522Z,50.00
2023-03-26T02:21:51.472Z,50.00
2023-03-26T02:24:20.902Z,50.10
2023-03-26T02:26:53.356Z,50.10
2023-03-26T02:29:22.215Z,50.10
2023-03-26T02:31:51.169Z,50.20
2023-03-26T02:34:19.323Z,50.20
2023-03-26T02:36:51.815Z,50.20
2023-03-26T02:39:20.970Z,50.10
2023-03-26T02:42:05.334Z,50.20
2023-03-26T02:44:40.725Z,50.30
2023-03-26T02:47:20.909Z,50.30
2023-03-26T02:49:54.723Z,50.20
2023-03-26T02:52:54.387Z,50.10
2023-03-26T02:55:22.609Z,50.20
2023-03-26T02:57:54.180Z,50.30
2023-03-26T03:00:29.053Z,50.70
2023-03-26T03:03:17.156Z,50.40
2023-03-26T03:06:09.056Z,50.40
2023-03-26T03:09:04.970Z,50.50
2023-03-26T03:11:33.740Z,50.40
2023-03-26T03:14:03.363Z,50.60
2023-03-26T03:16:34.111Z,50.70
2023-03-26T03:19:10.691Z,50.80
2023-03-26T03:21:40.537Z,50.80
2023-03-26T03:24:11.699Z,51.40
2023-03-26T03:26:47.932Z,51.00
2023-03-26T03:29:47.169Z,51.20
2023-03-26T03:32:33.435Z,51.30
2023-03-26T03:35:05.355Z,51.10
2023-03-26T03:37:33.369Z,51.10
2023-03-26T03:40:01.842Z,51.30
2023-03-26T03:42:33.405Z,51.30
2023-03-26T03:45:07.278Z,51.20
2023-03-26T03:47:57.233Z,51.40
2023-03-26T03:50:36.678Z,51.40
2023-03-26T03:53:25.908Z,51.30
2023-03-26T03:55:57.434Z,51.40
2023-03-26T03:58:36.675Z,51.40
2023-03-26T04:01:15.217Z,51.50
2023-03-26T04:03:58.127Z,51.60
2023-03-26T04:06:36.809Z,51.50
2023-03-26T04:09:05.157Z,51.60
2023-03-26T04:11:33.427Z,51.60
2023-03-26T04:14:21.671Z,51.70
2023-03-26T04:16:59.980Z,51.70
2023-03-26T04:19:30.382Z,51.70
2023-03-26T04:22:02.700Z,51.80
2023-03-26T04:24:38.300Z,51.70
2023-03-26T04:27:32.463Z,51.80
2023-03-26T04:30:20.671Z,51.80
2023-03-26T04:32:58.466Z,51.80
2023-03-26T04:35:30.380Z,51.80
2023-03-26T04:37:58.454Z,51.80
2023-03-26T04:40:31.558Z,52.00
2023-03-26T04:42:59.892Z,52.10
2023-03-26T04:45:56.587Z,52.10
2023-03-26T04:48:28.596Z,52.00
2023-03-26T04:50:57.178Z,52.20
2023-03-26T04:53:26.310Z,52.20
2023-03-26T04:56:26.815Z,52.40
2023-03-26T04:59:18.599Z,52.30
2023-03-26T05:01:47.157Z,52.10
2023-03-26T05:04:18.623Z,52.20
2023-03-26T05:06:46.991Z,52.30
2023-03-26T05:09:27.948Z,52.30
2023-03-26T05:12:14.393Z,52.40
2023-03-26T05:15:00.262Z,52.30
2023-03-26T05:17:48.599Z,52.30
2023-03-26T05:20:31.215Z,52.50
2023-03-26T05:23:00.101Z,52.50
2023-03-26T05:25:31.537Z,52.50
2023-03-26T05:28:01.495Z,52.60
2023-03-26T05:30:47.916Z,52.60
2023-03-26T05:33:17.786Z,52.60
2023-03-26T05:36:02.265Z,52.70
2023-03-26T05:38:32.383Z,52.90
2023-03-26T05:41:03.547Z,52.70
2023-03-26T05:43:32.396Z,52.80
2023-03-26T05:46:16.608Z,52.90
2023-03-26T05:48:45.290Z,52.80
2023-03-26T05:51:16.524Z,53.40
2023-03-26T05:53:52.500Z,53.00
2023-03-26T05:56:43.608Z,53.10
2023-03-26T05:59:30.323Z,53.00
2023-03-26T06:02:18.774Z,53.10
2023-03-26T06:05:12.543Z,53.20
2023-03-26T06:08:09.657Z,53.10
2023-03-26T06:10:40.007Z,53.20
2023-03-26T06:13:08.578Z,53.30
2023-03-26T06:15:40.407Z,53.30
2023-03-26T06:18:17.840Z,53.40
2023-03-26T06:21:05.436Z,53.50
2023-03-26T06:23:50.032Z,53.50
2023-03-26T06:26:37.145Z,53.50
2023-03-26T06:29:23.216Z,53.50
2023-03-26T06:31:51.141Z,53.50
2023-03-26T06:34:22.816Z,53.60
2023-03-26T06:36:52.576Z,53.70
2023-03-26T06:39:23.392Z,53.80
2023-03-26T06:42:20.849Z,53.90
2023-03-26T06:45:33.505Z,53.80
2023-03-26T06:48:20.001Z,53.80
2023-03-26T06:51:11.807Z,53.90
2023-03-26T06:53:59.680Z,53.90
2023-03-26T06:57:01.089Z,53.90
2023-03-26T06:59:51.069Z,53.80
2023-03-26T07:02:37.688Z,53.90
2023-03-26T07:05:24.998Z,54.00
2023-03-26T07:08:31.946Z,54.10
2023-03-26T07:11:35.229Z,54.10
2023-03-26T07:14:33.382Z,54.10
2023-03-26T07:17:10.943Z,54.00
2023-03-26T07:19:54.290Z,54.00
2023-03-26T07:22:26.791Z,54.20
2023-03-26T07:25:15.645Z,54.10
2023-03-26T07:28:13.320Z,54.20
2023-03-26T07:31:28.052Z,54.40
2023-03-26T07:34:24.320Z,54.30
2023-03-26T07:37:31.062Z,54.40
2023-03-26T07:40:47.103Z,54.70
2023-03-26T07:44:17.144Z,54.30
2023-03-26T07:47:18.360Z,54.50
2023-03-26T07:50:07.740Z,54.40
2023-03-26T07:52:53.587Z,54.40
2023-03-26T07:55:34.428Z,54.40
2023-03-26T07:58:47.440Z,54.50
2023-03-26T08:01:46.917Z,54.50
2023-03-26T08:04:36.951Z,54.70
2023-03-26T08:07:35.915Z,54.70
2023-03-26T08:10:28.399Z,54.60
2023-03-26T08:13:17.376Z,54.60
2023-03-26T08:15:53.678Z,54.70
2023-03-26T08:18:39.135Z,54.70
2023-03-26T08:21:13.892Z,54.80
2023-03-26T08:23:57.688Z,54.70
2023-03-26T08:26:32.148Z,54.60
2023-03-26T08:29:11.318Z,54.50
2023-03-26T08:31:42.212Z,54.50
2023-03-26T08:34:13.474Z,54.40
2023-03-26T08:36:43.075Z,54.40
2023-03-26T08:39:11.955Z,54.30
2023-03-26T08:42:14.695Z,54.30
2023-03-26T08:45:28.699Z,54.50
2023-03-26T08:48:37.800Z,54.50
2023-03-26T08:51:41.599Z,54.20
2023-03-26T08:54:39.539Z,54.10
2023-03-26T08:57:30.524Z,53.90
2023-03-26T09:00:43.616Z,53.60
2023-03-26T09:03:41.226Z,53.60
2023-03-26T09:06:38.718Z,53.80
2023-03-26T09:09:40.449Z,53.80
2023-03-26T09:12:37.174Z,53.80
2023-03-26T09:15:28.580Z,53.80
2023-03-26T09:18:51.871Z,53.30
2023-03-26T09:21:39.654Z,53.40
2023-03-26T09:24:36.883Z,52.90
2023-03-26T09:27:31.316Z,52.90
2023-03-26T09:30:22.463Z,52.90
2023-03-26T09:33:11.706Z,52.80
2023-03-26T09:35:54.667Z,52.90
2023-03-26T09:38:44.528Z,53.10
2023-03-26T09:41:17.870Z,53.30
2023-03-26T09:44:26.106Z,53.20
2023-03-26T09:47:23.170Z,53.50
2023-03-26T09:49:55.303Z,53.50
2023-03-26T09:52:51.110Z,53.50
2023-03-26T09:55:34.451Z,53.60
2023-03-26T09:58:16.866Z,53.40
2023-03-26T10:00:50.520Z,53.30
2023-03-26T10:03:31.169Z,53.30
2023-03-26T10:06:23.792Z,53.40
2023-03-26T10:09:11.382Z,53.50
2023-03-26T10:11:57.299Z,53.80
2023-03-26T10:14:33.603Z,54.10
2023-03-26T10:17:15.428Z,54.30
2023-03-26T10:19:58.232Z,54.60
2023-03-26T10:22:39.487Z,54.70
2023-03-26T10:25:23.391Z,54.90
2023-03-26T10:28:05.751Z,54.80
2023-03-26T10:30:56.653Z,54.70
2023-03-26T10:33:32.387Z,54.60
2023-03-26T10:36:29.871Z,54.50
2023-03-26T10:39:35.980Z,54.50
2023-03-26T10:42:16.945Z,54.50
2023-03-26T10:45:11.155Z,54.70
2023-03-26T10:47:55.686Z,54.90
2023-03-26T10:50:50.781Z,54.60
2023-03-26T10:53:33.159Z,54.30
2023-03-26T10:56:10.752Z,54.00
2023-03-26T10:58:48.366Z,53.90
2023-03-26T11:01:25.541Z,53.90
2023-03-26T11:03:56.582Z,53.90
2023-03-26T11:06:38.735Z,54.10
2023-03-26T11:09:18.621Z,54.20
2023-03-26T11:11:54.828Z,54.30
2023-03-26T11:14:34.844Z,54.20
2023-03-26T11:17:40.841Z,54.30
2023-03-26T11:20:10.906Z,54.10
2023-03-26T11:22:51.642Z,53.90
2023-03-26T11:25:31.230Z,53.20
2023-03-26T11:28:17.936Z,52.70
2023-03-26T11:30:53.577Z,52.30
2023-03-26T11:33:25.928Z,52.30
2023-03-26T11:36:06.407Z,52.40
2023-03-26T11:38:38.530Z,52.20
2023-03-26T11:41:16.706Z,52.40
2023-03-26T11:44:05.419Z,52.30
2023-03-26T11:46:44.406Z,52.50
2023-03-26T11:49:15.556Z,52.60
2023-03-26T11:51:44.990Z,52.80
2023-03-26T11:54:14.703Z,53.40
2023-03-26T11:57:06.088Z,53.30
2023-03-26T11:59:53.324Z,53.70
2023-03-26T12:02:32.671Z,53.60
2023-03-26T12:05:20.447Z,54.10
2023-03-26T12:07:54.204Z,53.90
2023-03-26T12:10:28.053Z,54.00
2023-03-26T12:13:01.234Z,54.20
2023-03-26T12:15:31.571Z,54.00
2023-03-26T12:18:18.492Z,53.60
2023-03-26T12:20:46.538Z,53.40
2023-03-26T12:23:38.750Z,53.10
2023-03-26T12:26:15.423Z,52.80
2023-03-26T12:28:50.128Z,52.50
2023-03-26T12:31:20.139Z,52.30
2023-03-26T12:34:06.237Z,52.20
2023-03-26T12:36:35.790Z,52.20
2023-03-26T12:40:10.039Z,52.30
2023-03-26T12:44:50.583Z,52.30
2023-03-26T12:45:22.374Z,52.40
2023-03-26T12:48:01.145Z,52.50
2023-03-26T12:50:47.492Z,52.70
2023-03-26T12:53:33.829Z,53.20
2023-03-26T12:56:13.465Z,53.20
2023-03-26T12:59:01.730Z,53.30
2023-03-26T13:01:41.756Z,53.40
2023-03-26T13:04:27.519Z,53.40
2023-03-26T13:07:00.567Z,52.90
2023-03-26T13:09:43.561Z,52.70
2023-03-26T13:12:24.395Z,52.10
2023-03-26T13:15:17.775Z,52.20
2023-03-26T13:18:04.196Z,52.10
2023-03-26T13:20:45.482Z,51.90
2023-03-26T13:23:23.303Z,52.00
2023-03-26T13:26:02.134Z,51.90
2023-03-26T13:28:40.383Z,51.90
2023-03-26T13:31:14.910Z,51.90
2023-03-26T13:33:53.728Z,52.20
2023-03-26T13:36:27.257Z,52.10
2023-03-26T13:39:09.994Z,52.20
2023-03-26T13:41:52.486Z,52.20
2023-03-26T13:44:33.147Z,52.20
2023-03-26T13:47:06.006Z,52.30
2023-03-26T13:49:41.892Z,52.20
2023-03-26T13:52:14.375Z,52.20
2023-03-26T13:54:46.672Z,52.20
2023-03-26T13:57:22.317Z,52.30
2023-03-26T13:59:57.326Z,52.40
2023-03-26T14:02:32.192Z,52.50
2023-03-26T14:05:08.007Z,52.50
2023-03-26T14:07:41.702Z,52.50
2023-03-26T14:10:14.042Z,52.60
2023-03-26T14:12:51.439Z,52.70
2023-03-26T14:15:27.608Z,52.80
2023-03-26T14:18:06.195Z,52.90
2023-03-26T14:21:02.232Z,53.00
2023-03-26T14:23:49.944Z,53.20
2023-03-26T14:26:32.775Z,53.20
2023-03-26T14:29:32.617Z,53.40
2023-03-26T14:32:24.307Z,53.50
2023-03-26T14:35:05.931Z,53.60
2023-03-26T14:37:53.769Z,53.50
2023-03-26T14:40:49.047Z,53.70
2023-03-26T14:43:38.469Z,53.70
2023-03-26T14:46:20.606Z,53.50
2023-03-26T14:49:06.253Z,53.50
2023-03-26T14:51:48.446Z,53.60
2023-03-26T14:54:21.818Z,53.60
2023-03-26T14:57:06.345Z,53.60
2023-03-26T15:00:15.786Z,53.70
2023-03-26T15:03:18.883Z,53.80
2023-03-26T15:06:23.382Z,53.80
2023-03-26T15:09:34.103Z,53.70
2023-03-26T15:12:14.004Z,53.90
2023-03-26T15:15:12.724Z,53.80
2023-03-26T15:18:18.036Z,53.90
2023-03-26T15:21:25.548Z,54.10
2023-03-26T15:24:23.615Z,54.40
2023-03-26T15:27:33.400Z,54.10
2023-03-26T15:30:49.150Z,54.00
2023-03-26T15:33:53.301Z,53.80
2023-03-26T15:36:39.138Z,53.70
2023-03-26T15:39:59.458Z,53.50
2023-03-26T15:42:38.441Z,53.50
2023-03-26T15:45:38.257Z,53.40
2023-03-26T15:48:31.368Z,53.50
2023-03-26T15:51:10.062Z,53.50
2023-03-26T15:53:44.718Z,53.40
2023-03-26T15:56:26.987Z,53.50
2023-03-26T15:59:05.225Z,53.50
2023-03-26T16:01:46.796Z,53.50
2023-03-26T16:04:26.373Z,53.60
2023-03-26T16:07:03.363Z,53.60
2023-03-26T16:09:45.919Z,53.60
2023-03-26T16:12:30.897Z,53.70
2023-03-26T16:15:29.524Z,54.00
2023-03-26T16:18:29.271Z,54.30
2023-03-26T16:21:47.309Z,54.50
2023-03-26T16:24:27.849Z,54.50
2023-03-26T16:27:26.232Z,54.40
2023-03-26T16:30:31.698Z,54.40
2023-03-26T16:33:13.941Z,54.40
2023-03-26T16:36:14.349Z,54.40
2023-03-26T16:38:50.164Z,54.40
2023-03-26T16:41:22.085Z,54.40
2023-03-26T16:44:00.360Z,54.30
2023-03-26T16:46:43.283Z,54.30
2023-03-26T16:49:27.397Z,54.30
2023-03-26T16:52:07.552Z,54.30
2023-03-26T16:54:46.150Z,54.40
2023-03-26T16:57:28.285Z,54.30
2023-03-26T17:00:30.032Z,54.50
2023-03-26T17:03:12.921Z,54.60
2023-03-26T17:06:03.686Z,54.50
2023-03-26T17:08:42.072Z,54.50
2023-03-26T17:11:25.213Z,54.30
2023-03-26T17:14:04.360Z,54.20
2023-03-26T17:16:36.746Z,54.20
2023-03-26T17:19:15.065Z,54.00
2023-03-26T17:21:52.345Z,54.00
2023-03-26T17:24:31.262Z,54.20
2023-03-26T17:27:37.572Z,54.10
2023-03-26T17:30:42.983Z,54.00
2023-03-26T17:33:21.403Z,54.10
2023-03-26T17:35:51.048Z,53.90
2023-03-26T17:38:56.724Z,53.80
2023-03-26T17:41:51.491Z,54.00
2023-03-26T17:44:47.013Z,53.90
2023-03-26T17:47:41.306Z,53.90
2023-03-26T17:50:15.514Z,53.80
2023-03-26T17:52:54.573Z,53.80
2023-03-26T17:55:25.764Z,53.80
2023-03-26T17:57:57.436Z,53.80
2023-03-26T18:00:30.137Z,53.80
2023-03-26T18:03:03.850Z,53.80
2023-03-26T18:05:34.158Z,53.80
2023-03-26T18:08:42.665Z,54.00
2023-03-26T18:11:52.753Z,54.00
2023-03-26T18:14:47.688Z,53.90
2023-03-26T18:17:15.737Z,53.80
2023-03-26T18:19:54.037Z,53.70
2023-03-26T18:22:25.633Z,53.90
2023-03-26T18:24:59.798Z,53.90
2023-03-26T18:27:35.959Z,53.90
2023-03-26T18:30:16.164Z,53.90
2023-03-26T18:32:52.502Z,54.00
2023-03-26T18:35:24.082Z,54.00
2023-03-26T18:37:55.786Z,54.00
2023-03-26T18:40:26.216Z,54.00
2023-03-26T18:42:56.984Z,54.00
2023-03-26T18:45:28.877Z,53.90
2023-03-26T18:47:59.159Z,54.10
2023-03-26T18:50:31.001Z,54.10
2023-03-26T18:53:01.029Z,54.10
2023-03-26T18:55:30.439Z,54.10
2023-03-26T18:57:59.157Z,54.10
2023-03-26T19:00:30.487Z,54.10
2023-03-26T19:03:05.390Z,54.20
2023-03-26T19:05:36.524Z,54.20
2023-03-26T19:08:07.542Z,54.60
2023-03-26T19:10:36.018Z,54.10
2023-03-26T19:13:05.274Z,54.10
2023-03-26T19:15:36.845Z,54.10
2023-03-26T19:18:11.846Z,54.10
2023-03-26T19:20:44.743Z,54.20
2023-03-26T19:23:15.652Z,54.30
2023-03-26T19:25:47.486Z,54.30
2023-03-26T19:28:22.990Z,54.30
2023-03-26T19:30:57.442Z,54.30
2023-03-26T19:33:33.879Z,54.30
2023-03-26T19:36:05.922Z,54.30
2023-03-26T19:38:42.687Z,54.30
2023-03-26T19:41:21.588Z,54.30
2023-03-26T19:43:51.089Z,54.20
2023-03-26T19:46:20.575Z,54.10
2023-03-26T19:48:49.885Z,54.00
2023-03-26T19:51:22.441Z,53.90
2023-03-26T19:53:55.260Z,53.80
2023-03-26T19:56:23.839Z,53.80
2023-03-26T19:58:52.328Z,53.80
2023-03-26T20:01:22.776Z,53.80
2023-03-26T20:03:52.867Z,53.80
2023-03-26T20:06:31.027Z,53.80
2023-03-26T20:09:06.479Z,53.70
2023-03-26T20:11:39.092Z,53.60
2023-03-26T20:14:13.952Z,53.70
2023-03-26T20:16:43.849Z,53.70
2023-03-26T20:19:14.086Z,53.70
2023-03-26T20:21:44.809Z,53.70
2023-03-26T20:24:15.640Z,53.70
2023-03-26T20:26:43.772Z,53.50
2023-03-26T20:29:12.900Z,53.60
2023-03-26T20:31:41.954Z,53.60
2023-03-26T20:34:16.886Z,53.50
2023-03-26T20:36:46.760Z,53.40
2023-03-26T20:39:15.353Z,53.20
2023-03-26T20:41:47.293Z,53.20
2023-03-26T20:44:17.301Z,53.10
2023-03-26T20:46:45.999Z,53.10
2023-03-26T20:49:15.044Z,53.20
2023-03-26T20:51:44.668Z,53.10
2023-03-26T20:54:17.833Z,53.00
2023-03-26T20:56:47.614Z,52.90
2023-03-26T20:59:21.983Z,52.90
2023-03-26T21:01:51.254Z,52.80
2023-03-26T21:04:20.118Z,52.80
2023-03-26T21:06:49.059Z,52.80
2023-03-26T21:09:23.695Z,52.80
2023-03-26T21:11:57.221Z,52.80
2023-03-26T21:14:28.851Z,52.70
2023-03-26T21:16:57.824Z,52.70
2023-03-26T21:19:26.936Z,52.80
2023-03-26T21:22:12.695Z,52.80
2023-03-26T21:25:02.173Z,52.70
2023-03-26T21:27:35.939Z,52.70
2023-03-26T21:30:07.864Z,52.70
2023-03-26T21:32:36.582Z,52.60
2023-03-26T21:35:05.574Z,52.60
2023-03-26T21:37:34.242Z,52.60
2023-03-26T21:40:13.916Z,52.60
2023-03-26T21:42:42.882Z,52.40
2023-03-26T21:45:12.050Z,52.30
2023-03-26T21:47:41.198Z,52.30
2023-03-26T21:50:12.484Z,52.20
2023-03-26T21:52:47.178Z,52.00
2023-03-26T21:55:19.069Z,52.00
2023-03-26T21:58:22.820Z,51.80
2023-03-26T22:01:05.882Z,51.40
2023-03-26T22:03:42.084Z,51.40
2023-03-26T22:06:14.514Z,51.00
2023-03-26T22:08:42.896Z,51.00
2023-03-26T22:11:13.482Z,51.00
2023-03-26T22:13:42.302Z,50.80
2023-03-26T22:16:11.729Z,50.80
2023-03-26T22:18:40.071Z,50.80
2023-03-26T22:21:08.218Z,50.70
2023-03-26T22:23:38.319Z,50.40
2023-03-26T22:26:07.209Z,50.20
2023-03-26T22:28:37.150Z,49.70
2023-03-26T22:31:09.403Z,49.80
2023-03-26T22:33:37.550Z,49.80
2023-03-26T22:36:06.135Z,49.80
2023-03-26T22:38:53.779Z,49.80
2023-03-26T22:41:22.511Z,49.80
2023-03-26T22:43:53.012Z,49.90
2023-03-26T22:46:21.005Z,50.00
2023-03-26T22:48:49.480Z,49.90
2023-03-26T22:51:17.865Z,49.70
2023-03-26T22:53:46.348Z,49.90
2023-03-26T22:56:15.831Z,49.80
2023-03-26T22:58:44.142Z,49.80
2023-03-26T23:01:17.884Z,49.80
2023-03-26T23:03:46.548Z,49.70
2023-03-26T23:06:15.320Z,49.90
2023-03-26T23:08:43.347Z,50.00
2023-03-26T23:11:13.673Z,50.00
2023-03-26T23:13:42.391Z,50.00
2023-03-26T23:16:11.485Z,49.80
2023-03-26T23:18:42.188Z,49.80
2023-03-26T23:21:14.734Z,49.80
2023-03-26T23:23:42.866Z,49.80
2023-03-26T23:26:10.937Z,49.90
2023-03-26T23:28:41.024Z,50.00
2023-03-26T23:31:10.765Z,50.00
2023-03-26T23:33:46.564Z,50.30
2023-03-26T23:36:17.968Z,50.10
2023-03-26T23:38:47.803Z,50.10
2023-03-26T23:41:17.270Z,50.20
2023-03-26T23:43:54.549Z,50.20
2023-03-26T23:46:24.343Z,50.70
2023-03-26T23:48:55.106Z,50.30
2023-03-26T23:51:23.948Z,50.20
2023-03-26T23:53:52.652Z,50.30
2023-03-26T23:56:20.989Z,50.20
2023-03-26T23:58:50.707Z,50.30
